Time;durP1;ratioP1;P1;durP2;ratioP2;P2;SDS_P1;SDS_P2;PMS_P1;PMS_P2;Temp;Humidity;BMP_temperature;BMP_pressure;BME280_temperature;BME280_humidity;BME280_pressure;Samples;Min_cycle;Max_cycle;Signal;HPM_P1;HPM_P2
2022/01/22 00:02:08;;;;;;;2.15;1.83;;;;;;;;;;5022417;28;20199;-86
2022/01/22 00:04:36;;;;;;;1.60;1.50;;;;;;;;;;5022428;28;20206;-86
2022/01/22 00:07:06;;;;;;;1.77;1.67;;;;;;;;;;5021516;28;20226;-86
2022/01/22 00:09:38;;;;;;;1.70;1.60;;;;;;;;;;5022202;28;20222;-85
2022/01/22 00:12:21;;;;;;;1.65;1.55;;;;;;;;;;5021430;28;20207;-85
2022/01/22 00:14:48;;;;;;;1.90;1.80;;;;;;;;;;5022804;28;20663;-85
2022/01/22 00:17:15;;;;;;;1.50;1.40;;;;;;;;;;5023074;28;20567;-86
2022/01/22 00:19:42;;;;;;;1.40;1.30;;;;;;;;;;5022546;28;20218;-86
2022/01/22 00:22:10;;;;;;;1.60;1.50;;;;;;;;;;5022277;28;20261;-86
2022/01/22 00:24:39;;;;;;;1.52;1.42;;;;;;;;;;5021319;28;20210;-86
2022/01/22 00:27:08;;;;;;;1.75;1.65;;;;;;;;;;5021549;28;20664;-86
2022/01/22 00:29:35;;;;;;;1.40;1.30;;;;;;;;;;5020344;28;20223;-86
2022/01/22 00:32:03;;;;;;;1.38;1.38;;;;;;;;;;5019897;28;20207;-86
2022/01/22 00:34:30;;;;;;;1.40;1.30;;;;;;;;;;5020333;28;20723;-86
2022/01/22 00:36:58;;;;;;;1.55;1.45;;;;;;;;;;5019618;28;20230;-86
2022/01/22 00:39:25;;;;;;;1.30;1.20;;;;;;;;;;5019498;28;20226;-87
2022/01/22 00:41:52;;;;;;;1.30;1.20;;;;;;;;;;5017745;28;20210;-87
2022/01/22 00:44:21;;;;;;;1.25;1.15;;;;;;;;;;5016870;28;20210;-86
2022/01/22 00:46:48;;;;;;;1.20;1.10;;;;;;;;;;5017803;28;20600;-86
2022/01/22 00:49:16;;;;;;;1.00;1.00;;;;;;;;;;5016238;28;20227;-87
2022/01/22 00:51:43;;;;;;;1.25;1.20;;;;;;;;;;5016530;28;20478;-85
2022/01/22 00:54:10;;;;;;;1.10;1.00;;;;;;;;;;5016396;28;20199;-86
2022/01/22 00:56:38;;;;;;;0.90;0.90;;;;;;;;;;5017182;28;20199;-86
2022/01/22 00:59:05;;;;;;;1.17;1.08;;;;;;;;;;5016871;28;20231;-86
2022/01/22 01:01:33;;;;;;;0.82;0.82;;;;;;;;;;5017206;28;20549;-87
2022/01/22 01:04:02;;;;;;;0.80;0.80;;;;;;;;;;5017074;28;20603;-86
2022/01/22 01:06:30;;;;;;;1.38;1.27;;;;;;;;;;5016541;28;20209;-87
2022/01/22 01:08:59;;;;;;;0.93;0.90;;;;;;;;;;5016597;28;20273;-86
2022/01/22 01:11:28;;;;;;;1.30;1.20;;;;;;;;;;5017442;28;20199;-86
2022/01/22 01:13:59;;;;;;;0.90;0.90;;;;;;;;;;5016710;28;20655;-87
2022/01/22 01:16:45;;;;;;;0.95;0.90;;;;;;;;;;5016411;28;20206;-86
2022/01/22 01:33:04;;;;;;;2.40;2.20;;;;;;;;;;5016085;28;20195;-86
2022/01/22 01:35:36;;;;;;;1.52;1.42;;;;;;;;;;5016235;28;20262;-86
2022/01/22 01:38:04;;;;;;;1.17;1.17;;;;;;;;;;5015633;28;20563;-86
2022/01/22 01:40:34;;;;;;;0.93;0.93;;;;;;;;;;5015838;28;20224;-86
2022/01/22 01:43:05;;;;;;;1.73;1.27;;;;;;;;;;5015626;28;20234;-86
2022/01/22 01:45:33;;;;;;;1.10;1.10;;;;;;;;;;5015952;28;20189;-86
2022/01/22 01:48:09;;;;;;;1.50;1.40;;;;;;;;;;5015959;28;20282;-86
2022/01/22 01:50:39;;;;;;;1.40;1.30;;;;;;;;;;5015976;28;20606;-86
2022/01/22 01:53:12;;;;;;;1.10;1.10;;;;;;;;;;5015277;28;20226;-87
2022/01/22 01:55:51;;;;;;;0.90;0.90;;;;;;;;;;5015401;28;20246;-85
2022/01/22 01:58:18;;;;;;;0.98;0.98;;;;;;;;;;5015794;28;20549;-86
2022/01/22 02:00:46;;;;;;;1.10;1.10;;;;;;;;;;5014819;28;20215;-85
2022/01/22 02:03:14;;;;;;;1.13;1.13;;;;;;;;;;5015435;28;20211;-86
2022/01/22 02:05:42;;;;;;;1.10;1.10;;;;;;;;;;5015466;28;20195;-86
2022/01/22 02:08:12;;;;;;;0.90;0.90;;;;;;;;;;5015344;28;20231;-86
2022/01/22 02:10:45;;;;;;;1.17;1.08;;;;;;;;;;5014767;28;20218;-87
2022/01/22 02:24:13;;;;;;;1.00;1.00;;;;;;;;;;5015371;28;20206;-86
2022/01/22 02:26:47;;;;;;;1.10;1.10;;;;;;;;;;5014938;28;20214;-86
2022/01/22 02:29:15;;;;;;;1.98;1.73;;;;;;;;;;5014895;28;20580;-86
2022/01/22 02:31:51;;;;;;;1.67;1.25;;;;;;;;;;5015237;28;20202;-86
2022/01/22 02:34:26;;;;;;;1.95;1.27;;;;;;;;;;5015374;28;20194;-85
2022/01/22 02:37:00;;;;;;;1.13;1.13;;;;;;;;;;5015619;28;20206;-85
2022/01/22 02:39:37;;;;;;;1.15;1.15;;;;;;;;;;5016404;28;20230;-86
2022/01/22 02:42:06;;;;;;;1.10;1.10;;;;;;;;;;5016055;28;20237;-87
2022/01/22 02:44:34;;;;;;;1.20;1.20;;;;;;;;;;5015466;28;20195;-85
2022/01/22 02:47:01;;;;;;;1.50;1.40;;;;;;;;;;5016245;28;20253;-86
2022/01/22 02:49:28;;;;;;;1.00;1.00;;;;;;;;;;5015039;28;20317;-87
2022/01/22 02:52:03;;;;;;;1.45;1.20;;;;;;;;;;5014683;28;20203;-86
2022/01/22 02:54:30;;;;;;;1.20;1.15;;;;;;;;;;5015311;28;20278;-86
2022/01/22 02:56:58;;;;;;;1.75;1.55;;;;;;;;;;5014956;28;20210;-87
2022/01/22 02:59:25;;;;;;;1.10;1.10;;;;;;;;;;5014307;28;20227;-86
2022/01/22 03:01:53;;;;;;;1.00;1.00;;;;;;;;;;5014669;28;20250;-86
2022/01/22 03:04:21;;;;;;;1.83;1.38;;;;;;;;;;5014230;28;20664;-86
2022/01/22 03:06:49;;;;;;;1.20;1.20;;;;;;;;;;5014556;28;20195;-87
2022/01/22 03:09:25;;;;;;;1.25;1.15;;;;;;;;;;5014896;28;20662;-87
2022/01/22 03:12:14;;;;;;;1.33;1.23;;;;;;;;;;5014909;28;20190;-86
2022/01/22 03:17:35;;;;;;;1.30;1.30;;;;;;;;;;4971233;28;20198;-85
2022/01/22 03:20:17;;;;;;;1.17;1.17;;;;;;;;;;5015336;28;20313;-85
2022/01/22 03:23:06;;;;;;;1.40;1.30;;;;;;;;;;5015385;28;20628;-86
2022/01/22 03:28:23;;;;;;;1.48;1.38;;;;;;;;;;5014856;28;20194;-86
2022/01/22 03:30:51;;;;;;;1.17;1.17;;;;;;;;;;5014821;28;20234;-86
2022/01/22 03:33:21;;;;;;;1.30;1.20;;;;;;;;;;5014140;28;20210;-87
2022/01/22 03:35:54;;;;;;;1.05;1.02;;;;;;;;;;5014606;28;20205;-86
2022/01/22 03:38:21;;;;;;;1.20;1.20;;;;;;;;;;5014828;28;20220;-87
2022/01/22 03:40:50;;;;;;;1.00;1.00;;;;;;;;;;5014161;28;20225;-87
2022/01/22 03:43:18;;;;;;;1.35;1.30;;;;;;;;;;5014643;28;20203;-87
2022/01/22 03:45:46;;;;;;;1.30;1.20;;;;;;;;;;5014293;28;20273;-87
2022/01/22 03:48:13;;;;;;;1.00;1.00;;;;;;;;;;5014489;28;20257;-87
2022/01/22 03:50:41;;;;;;;1.17;1.17;;;;;;;;;;5013417;28;20254;-85
2022/01/22 03:53:08;;;;;;;1.38;1.38;;;;;;;;;;5012891;28;20226;-86
2022/01/22 03:55:45;;;;;;;1.02;1.02;;;;;;;;;;5014077;28;20207;-85
2022/01/22 03:58:14;;;;;;;1.10;1.10;;;;;;;;;;5014118;28;20601;-87
2022/01/22 04:00:42;;;;;;;1.10;1.10;;;;;;;;;;5013778;28;20219;-85
2022/01/22 04:03:28;;;;;;;1.48;1.38;;;;;;;;;;5013589;28;20206;-84
2022/01/22 04:06:17;;;;;;;1.27;1.27;;;;;;;;;;5013629;28;20267;-86
2022/01/22 04:08:44;;;;;;;1.20;1.13;;;;;;;;;;5014130;28;20193;-86
2022/01/22 04:11:15;;;;;;;1.40;1.35;;;;;;;;;;5012740;28;20239;-86
2022/01/22 04:13:46;;;;;;;1.30;1.20;;;;;;;;;;5013415;28;20207;-86
2022/01/22 04:16:14;;;;;;;1.40;1.30;;;;;;;;;;5013471;28;20689;-85
2022/01/22 04:26:59;;;;;;;1.58;1.48;;;;;;;;;;5017045;28;20558;-86
2022/01/22 04:29:30;;;;;;;1.67;1.58;;;;;;;;;;5017082;28;20313;-85
2022/01/22 04:31:57;;;;;;;1.67;1.58;;;;;;;;;;5016758;28;20187;-85
2022/01/22 04:34:25;;;;;;;1.10;1.10;;;;;;;;;;5017474;28;20209;-86
2022/01/22 04:36:52;;;;;;;1.35;1.25;;;;;;;;;;5016923;28;20203;-86
2022/01/22 04:39:22;;;;;;;1.70;1.13;;;;;;;;;;5016824;28;20273;-86
2022/01/22 04:41:51;;;;;;;1.33;1.23;;;;;;;;;;5016446;28;20622;-86
2022/01/22 04:44:20;;;;;;;1.27;1.17;;;;;;;;;;5017253;28;20199;-85
2022/01/22 04:46:56;;;;;;;3.45;1.38;;;;;;;;;;5017235;28;20257;-85
2022/01/22 04:55:00;;;;;;;1.30;1.23;;;;;;;;;;5016901;28;20262;-85
2022/01/22 04:57:28;;;;;;;1.58;1.48;;;;;;;;;;5016742;28;20203;-85
2022/01/22 04:59:55;;;;;;;1.88;1.70;;;;;;;;;;5016732;28;20223;-85
2022/01/22 05:02:24;;;;;;;1.50;1.40;;;;;;;;;;5017012;28;20202;-85
2022/01/22 05:04:51;;;;;;;1.33;1.23;;;;;;;;;;5016867;28;20598;-86
2022/01/22 05:07:19;;;;;;;3.38;1.20;;;;;;;;;;5016557;28;20205;-84
2022/01/22 05:09:46;;;;;;;1.67;1.58;;;;;;;;;;5015894;28;20227;-86
2022/01/22 05:12:14;;;;;;;1.67;1.58;;;;;;;;;;5016360;28;20206;-86
2022/01/22 05:14:41;;;;;;;1.27;1.20;;;;;;;;;;5015989;28;20203;-86
2022/01/22 05:17:09;;;;;;;1.30;1.20;;;;;;;;;;5016373;28;20214;-85
2022/01/22 05:19:47;;;;;;;1.30;1.30;;;;;;;;;;5016042;28;20226;-86
2022/01/22 05:22:26;;;;;;;1.00;1.00;;;;;;;;;;5015596;28;20190;-85
2022/01/22 05:24:58;;;;;;;1.08;1.05;;;;;;;;;;5016005;28;20198;-85
2022/01/22 05:27:44;;;;;;;1.10;1.10;;;;;;;;;;5015666;28;20214;-85
2022/01/22 05:30:36;;;;;;;1.45;1.35;;;;;;;;;;5015769;28;20598;-86
2022/01/22 05:33:14;;;;;;;1.75;1.65;;;;;;;;;;5014937;28;20209;-86
2022/01/22 05:38:32;;;;;;;0.93;0.93;;;;;;;;;;5015775;28;20186;-85
2022/01/22 05:40:59;;;;;;;1.10;1.05;;;;;;;;;;5015966;28;20223;-84
2022/01/22 05:43:27;;;;;;;0.98;0.98;;;;;;;;;;5015475;28;20202;-86
2022/01/22 05:45:55;;;;;;;1.00;1.00;;;;;;;;;;5015335;28;20194;-86
2022/01/22 05:48:22;;;;;;;1.40;1.30;;;;;;;;;;5015282;28;20199;-87
2022/01/22 05:50:54;;;;;;;1.27;1.17;;;;;;;;;;5015478;28;20598;-88
2022/01/22 05:53:37;;;;;;;0.93;0.93;;;;;;;;;;5016087;28;20199;-88
2022/01/22 06:01:37;;;;;;;0.90;0.90;;;;;;;;;;5015856;28;20181;-88
2022/01/22 06:04:05;;;;;;;0.90;0.90;;;;;;;;;;5014986;28;20694;-87
2022/01/22 06:06:34;;;;;;;0.95;0.95;;;;;;;;;;5015450;28;20198;-88
2022/01/22 06:10:14;;;;;;;2.17;0.98;;;;;;;;;;5015645;28;20210;-88
2022/01/22 06:12:45;;;;;;;1.23;1.10;;;;;;;;;;5015341;28;20214;-88
2022/01/22 06:15:16;;;;;;;1.02;1.02;;;;;;;;;;5016158;28;20668;-87
2022/01/22 06:17:43;;;;;;;1.23;1.23;;;;;;;;;;5015596;28;20566;-87
2022/01/22 06:20:13;;;;;;;1.25;1.20;;;;;;;;;;5015452;28;20223;-87
2022/01/22 06:22:43;;;;;;;1.40;1.30;;;;;;;;;;5014939;28;20231;-86
2022/01/22 06:25:11;;;;;;;1.10;1.10;;;;;;;;;;5014819;28;20199;-87
2022/01/22 06:27:39;;;;;;;1.38;1.27;;;;;;;;;;5015350;28;20213;-85
2022/01/22 06:30:08;;;;;;;1.20;1.15;;;;;;;;;;5014543;28;20217;-88
2022/01/22 06:32:35;;;;;;;1.10;1.10;;;;;;;;;;5015330;28;20576;-86
2022/01/22 06:35:03;;;;;;;2.03;1.30;;;;;;;;;;5014467;28;20206;-86
2022/01/22 06:37:32;;;;;;;1.02;1.02;;;;;;;;;;5014634;28;20187;-87
2022/01/22 06:42:48;;;;;;;0.80;0.80;;;;;;;;;;5014860;28;20273;-86
2022/01/22 06:45:16;;;;;;;1.25;1.20;;;;;;;;;;5014780;28;20703;-86
2022/01/22 06:47:44;;;;;;;0.90;0.90;;;;;;;;;;5014841;28;20206;-86
2022/01/22 06:50:12;;;;;;;1.00;1.00;;;;;;;;;;5014043;28;20230;-87
2022/01/22 06:52:40;;;;;;;0.90;0.90;;;;;;;;;;5014105;28;20230;-87
2022/01/22 06:55:11;;;;;;;0.80;0.80;;;;;;;;;;5014803;28;20209;-88
2022/01/22 06:57:39;;;;;;;0.80;0.80;;;;;;;;;;5015470;28;20187;-86
2022/01/22 07:00:08;;;;;;;0.90;0.90;;;;;;;;;;5015677;28;20233;-87
2022/01/22 07:02:35;;;;;;;0.93;0.93;;;;;;;;;;5014737;28;20206;-88
2022/01/22 07:05:02;;;;;;;0.68;0.68;;;;;;;;;;5014417;28;20202;-87
2022/01/22 07:07:31;;;;;;;1.15;1.15;;;;;;;;;;5014648;28;20656;-87
2022/01/22 07:09:58;;;;;;;0.85;0.85;;;;;;;;;;5014501;28;20253;-87
2022/01/22 07:12:26;;;;;;;0.80;0.80;;;;;;;;;;5014513;28;20234;-87
2022/01/22 07:14:54;;;;;;;0.80;0.80;;;;;;;;;;5014836;28;20210;-87
2022/01/22 07:17:21;;;;;;;0.80;0.80;;;;;;;;;;5015348;28;20206;-87
2022/01/22 07:19:51;;;;;;;0.73;0.73;;;;;;;;;;5015936;28;20284;-87
2022/01/22 07:22:35;;;;;;;0.80;0.80;;;;;;;;;;5015532;28;20184;-87
2022/01/22 07:25:03;;;;;;;0.70;0.70;;;;;;;;;;5017547;28;20600;-87
2022/01/22 07:27:32;;;;;;;0.73;0.73;;;;;;;;;;5016998;28;20207;-87
2022/01/22 07:29:59;;;;;;;0.70;0.70;;;;;;;;;;5015915;28;20223;-87
2022/01/22 07:32:31;;;;;;;0.95;0.93;;;;;;;;;;5015195;28;20219;-87
2022/01/22 07:34:58;;;;;;;1.05;0.90;;;;;;;;;;5015198;28;20632;-88
2022/01/22 07:37:26;;;;;;;1.00;1.00;;;;;;;;;;5014862;28;20664;-87
2022/01/22 07:39:53;;;;;;;1.35;1.25;;;;;;;;;;5015561;28;20218;-87
2022/01/22 07:42:20;;;;;;;1.38;1.27;;;;;;;;;;5015581;28;20566;-87
2022/01/22 07:44:49;;;;;;;1.40;1.30;;;;;;;;;;5015435;28;20207;-87
2022/01/22 07:47:17;;;;;;;1.40;1.30;;;;;;;;;;5015462;28;20206;-87
2022/01/22 07:49:44;;;;;;;1.40;1.30;;;;;;;;;;5014703;28;20231;-86
2022/01/22 07:52:11;;;;;;;1.42;1.33;;;;;;;;;;5017389;28;20222;-87
2022/01/22 07:54:39;;;;;;;1.40;1.30;;;;;;;;;;5019684;28;20195;-88
2022/01/22 07:57:06;;;;;;;1.60;1.50;;;;;;;;;;5018346;28;20206;-86
2022/01/22 07:59:34;;;;;;;1.50;1.40;;;;;;;;;;5019178;28;20226;-88
2022/01/22 08:02:05;;;;;;;1.73;1.52;;;;;;;;;;5019612;28;20206;-87
2022/01/22 08:04:32;;;;;;;1.67;1.58;;;;;;;;;;5018181;28;20190;-87
2022/01/22 08:07:05;;;;;;;2.00;1.80;;;;;;;;;;5020612;28;20206;-88
2022/01/22 08:09:33;;;;;;;1.60;1.50;;;;;;;;;;5022584;28;20231;-90
2022/01/22 08:12:03;;;;;;;1.73;1.63;;;;;;;;;;5022401;28;20218;-88
2022/01/22 08:14:30;;;;;;;1.75;1.65;;;;;;;;;;5018126;28;20203;-86
2022/01/22 08:16:57;;;;;;;1.70;1.60;;;;;;;;;;5018219;28;20207;-85
2022/01/22 08:19:26;;;;;;;1.60;1.50;;;;;;;;;;5018662;28;20214;-86
2022/01/22 08:21:56;;;;;;;1.92;1.83;;;;;;;;;;5018456;28;20206;-86
2022/01/22 08:24:26;;;;;;;1.80;1.70;;;;;;;;;;5019221;28;20214;-87
2022/01/22 08:27:08;;;;;;;1.88;1.77;;;;;;;;;;5019343;28;20210;-87
2022/01/22 08:29:36;;;;;;;2.45;1.65;;;;;;;;;;5016522;28;20219;-88
2022/01/22 08:32:09;;;;;;;2.30;1.70;;;;;;;;;;5015877;28;20590;-88
2022/01/22 08:37:23;;;;;;;1.65;1.55;;;;;;;;;;5016222;28;20285;-88
2022/01/22 08:39:50;;;;;;;2.20;2.00;;;;;;;;;;5016058;28;20211;-87
2022/01/22 08:42:18;;;;;;;1.75;1.65;;;;;;;;;;5015875;28;20214;-86
2022/01/22 08:44:46;;;;;;;1.83;1.73;;;;;;;;;;5015592;28;20405;-88
2022/01/22 08:47:14;;;;;;;1.60;1.50;;;;;;;;;;5015836;28;20203;-88
2022/01/22 08:49:43;;;;;;;1.50;1.40;;;;;;;;;;5015631;28;20234;-88
2022/01/22 08:52:13;;;;;;;1.85;1.60;;;;;;;;;;5015511;28;20230;-88
2022/01/22 08:54:41;;;;;;;2.03;1.80;;;;;;;;;;5016014;28;20220;-88
2022/01/22 08:57:09;;;;;;;1.50;1.38;;;;;;;;;;5015458;28;20210;-88
2022/01/22 08:59:37;;;;;;;1.38;1.27;;;;;;;;;;5015880;28;20223;-88
2022/01/22 09:02:06;;;;;;;1.60;1.50;;;;;;;;;;5015424;28;20202;-88
2022/01/22 09:04:33;;;;;;;2.03;1.92;;;;;;;;;;5014999;28;20207;-87
2022/01/22 09:07:05;;;;;;;1.20;1.15;;;;;;;;;;5015220;28;20207;-87
2022/01/22 09:09:35;;;;;;;1.27;1.27;;;;;;;;;;5016212;28;20238;-87
2022/01/22 09:12:05;;;;;;;2.13;1.38;;;;;;;;;;5017133;28;20222;-89
2022/01/22 09:15:02;;;;;;;1.30;1.20;;;;;;;;;;5017501;28;20727;-88
2022/01/22 09:17:29;;;;;;;1.25;1.20;;;;;;;;;;5018115;28;20627;-90
2022/01/22 09:19:58;;;;;;;1.60;1.50;;;;;;;;;;5017221;28;20231;-89
2022/01/22 09:22:34;;;;;;;1.55;1.45;;;;;;;;;;5017300;28;20205;-89
2022/01/22 09:25:01;;;;;;;1.20;1.10;;;;;;;;;;5018408;28;20286;-89
2022/01/22 09:27:29;;;;;;;1.00;1.00;;;;;;;;;;5017219;28;20207;-88
2022/01/22 09:29:56;;;;;;;1.52;1.42;;;;;;;;;;5016268;28;20242;-88
2022/01/22 09:32:24;;;;;;;1.40;1.30;;;;;;;;;;5016146;28;20222;-88
2022/01/22 09:34:51;;;;;;;1.30;1.20;;;;;;;;;;5016742;28;20692;-87
2022/01/22 09:37:18;;;;;;;1.50;1.40;;;;;;;;;;5016304;28;20203;-89
2022/01/22 09:39:47;;;;;;;1.30;1.20;;;;;;;;;;5016480;28;20268;-88
2022/01/22 09:42:16;;;;;;;1.50;1.40;;;;;;;;;;5016561;28;20198;-88
2022/01/22 09:44:45;;;;;;;1.60;1.40;;;;;;;;;;5015628;28;20560;-88
2022/01/22 09:47:13;;;;;;;1.30;1.20;;;;;;;;;;5016489;28;20199;-88
2022/01/22 09:49:42;;;;;;;1.63;1.52;;;;;;;;;;5014415;28;20233;-88
2022/01/22 09:52:16;;;;;;;1.80;1.70;;;;;;;;;;4995527;28;20591;-87
2022/01/22 09:54:43;;;;;;;1.60;1.50;;;;;;;;;;4995704;28;20187;-88
2022/01/22 09:57:13;;;;;;;1.75;1.65;;;;;;;;;;5015246;28;20203;-88
2022/01/22 09:59:41;;;;;;;2.03;1.92;;;;;;;;;;5015661;28;20245;-87
2022/01/22 10:02:11;;;;;;;1.60;1.45;;;;;;;;;;5015099;28;20207;-89
2022/01/22 10:04:41;;;;;;;1.60;1.50;;;;;;;;;;5015526;28;20202;-87
2022/01/22 10:07:17;;;;;;;1.50;1.40;;;;;;;;;;5015478;28;20203;-87
2022/01/22 10:09:58;;;;;;;1.50;1.40;;;;;;;;;;5014884;28;20233;-87
2022/01/22 10:12:31;;;;;;;1.33;1.23;;;;;;;;;;5014377;28;20199;-86
2022/01/22 10:15:11;;;;;;;1.20;1.08;;;;;;;;;;5016394;28;20195;-86
2022/01/22 10:17:47;;;;;;;1.20;1.10;;;;;;;;;;4996347;28;20633;-89
2022/01/22 10:20:47;;;;;;;1.00;1.00;;;;;;;;;;4997253;28;20234;-88
2022/01/22 10:23:26;;;;;;;2.20;1.48;;;;;;;;;;4936798;29;20268;-88
2022/01/22 10:26:02;;;;;;;0.90;0.90;;;;;;;;;;4935145;29;20736;-86
2022/01/22 10:28:42;;;;;;;0.75;0.75;;;;;;;;;;4980943;28;20210;-87
2022/01/22 10:31:18;;;;;;;0.80;0.80;;;;;;;;;;5014556;28;20245;-87
2022/01/22 10:33:46;;;;;;;0.63;0.63;;;;;;;;;;5014434;28;20317;-87
2022/01/22 10:36:18;;;;;;;1.05;1.05;;;;;;;;;;5014720;28;20209;-88
2022/01/22 10:38:48;;;;;;;0.68;0.68;;;;;;;;;;5014901;28;20270;-86
2022/01/22 10:41:19;;;;;;;0.90;0.90;;;;;;;;;;5015926;28;20628;-87
2022/01/22 10:43:54;;;;;;;1.95;1.27;;;;;;;;;;5014504;28;20192;-87
2022/01/22 10:46:47;;;;;;;1.08;0.85;;;;;;;;;;5014773;28;20644;-86
2022/01/22 10:49:40;;;;;;;1.40;1.00;;;;;;;;;;5035049;28;20225;-86
2022/01/22 10:52:14;;;;;;;1.50;0.95;;;;;;;;;;5035527;28;20221;-88
2022/01/22 10:55:14;;;;;;;1.70;1.60;;;;;;;;;;5035693;28;20252;-88
2022/01/22 10:58:06;;;;;;;1.27;1.17;;;;;;;;;;5036464;28;20189;-88
2022/01/22 11:00:46;;;;;;;1.02;0.98;;;;;;;;;;5031526;28;20226;-88
2022/01/22 11:03:33;;;;;;;0.90;0.90;;;;;;;;;;5015354;28;20194;-88
2022/01/22 11:06:27;;;;;;;0.93;0.93;;;;;;;;;;5015475;28;20202;-87
2022/01/22 11:08:56;;;;;;;0.93;0.93;;;;;;;;;;5017440;28;20230;-86
2022/01/22 11:11:36;;;;;;;0.90;0.90;;;;;;;;;;5016587;28;20242;-88
2022/01/22 11:14:12;;;;;;;2.00;1.90;;;;;;;;;;5016836;28;20223;-88
2022/01/22 11:16:46;;;;;;;1.00;1.00;;;;;;;;;;5017066;28;20260;-92
2022/01/22 11:19:17;;;;;;;1.17;1.10;;;;;;;;;;5016824;28;20245;-90
2022/01/22 11:21:52;;;;;;;1.20;1.20;;;;;;;;;;5016989;28;20211;-89
2022/01/22 11:24:23;;;;;;;0.90;0.90;;;;;;;;;;5017960;28;20198;-89
2022/01/22 11:26:53;;;;;;;1.70;1.23;;;;;;;;;;5017119;28;20203;-89
2022/01/22 11:29:24;;;;;;;1.42;1.33;;;;;;;;;;5017496;28;20228;-89
2022/01/22 11:32:09;;;;;;;1.88;1.52;;;;;;;;;;5015941;28;20206;-90
2022/01/22 11:34:38;;;;;;;1.30;1.20;;;;;;;;;;5017311;28;20667;-89
2022/01/22 11:37:16;;;;;;;2.10;2.00;;;;;;;;;;5016974;28;20207;-89
2022/01/22 11:40:05;;;;;;;1.20;1.10;;;;;;;;;;5017152;28;20246;-88
2022/01/22 11:42:56;;;;;;;1.40;1.30;;;;;;;;;;5016315;28;20179;-89
2022/01/22 11:45:30;;;;;;;1.10;1.00;;;;;;;;;;5016757;28;20195;-90
2022/01/22 11:48:21;;;;;;;1.70;1.00;;;;;;;;;;5017137;28;20198;-89
2022/01/22 11:50:51;;;;;;;0.80;0.80;;;;;;;;;;5016644;28;20241;-90
2022/01/22 11:53:25;;;;;;;0.73;0.73;;;;;;;;;;5016959;28;20579;-89
2022/01/22 11:56:27;;;;;;;1.00;1.00;;;;;;;;;;5016623;28;20206;-90
2022/01/22 11:59:31;;;;;;;1.00;1.00;;;;;;;;;;5014811;28;20199;-89
2022/01/22 12:02:09;;;;;;;0.80;0.80;;;;;;;;;;5016938;28;20213;-89
2022/01/22 12:05:06;;;;;;;1.42;1.25;;;;;;;;;;5016231;28;20223;-89
2022/01/22 12:07:37;;;;;;;0.70;0.70;;;;;;;;;;5015227;28;20203;-88
2022/01/22 12:16:49;;;;;;;0.80;0.80;;;;;;;;;;5018151;28;20189;-89
2022/01/22 12:20:03;;;;;;;1.23;1.10;;;;;;;;;;5016605;28;20221;-89
2022/01/22 12:22:47;;;;;;;0.75;0.75;;;;;;;;;;5016436;28;20571;-89
2022/01/22 12:25:49;;;;;;;1.00;1.00;;;;;;;;;;5015837;28;20195;-88
2022/01/22 12:28:35;;;;;;;0.93;0.93;;;;;;;;;;5015250;28;20179;-87
2022/01/22 12:31:04;;;;;;;2.17;1.02;;;;;;;;;;5014847;28;20215;-88
2022/01/22 12:33:52;;;;;;;0.95;0.95;;;;;;;;;;5013548;28;20205;-88
2022/01/22 12:36:28;;;;;;;1.00;1.00;;;;;;;;;;5014102;28;20606;-88
2022/01/22 12:39:09;;;;;;;1.13;1.10;;;;;;;;;;5017768;28;20226;-88
2022/01/22 12:41:47;;;;;;;0.90;0.90;;;;;;;;;;5017446;28;20203;-88
2022/01/22 12:44:27;;;;;;;0.90;0.90;;;;;;;;;;5018055;28;20682;-88
2022/01/22 12:46:57;;;;;;;1.77;1.20;;;;;;;;;;5017464;28;20234;-88
2022/01/22 12:49:27;;;;;;;1.27;1.17;;;;;;;;;;5016454;28;20237;-88
2022/01/22 12:51:55;;;;;;;1.25;1.15;;;;;;;;;;5016814;28;20203;-88
2022/01/22 12:54:44;;;;;;;1.00;1.00;;;;;;;;;;5018367;28;20215;-88
2022/01/22 12:57:13;;;;;;;1.45;1.35;;;;;;;;;;5018919;28;20716;-87
2022/01/22 12:59:50;;;;;;;0.90;0.90;;;;;;;;;;5019209;28;20223;-88
2022/01/22 13:02:18;;;;;;;0.90;0.90;;;;;;;;;;5017183;28;20211;-89
2022/01/22 13:04:58;;;;;;;1.00;1.00;;;;;;;;;;5018097;28;20226;-88
2022/01/22 13:07:29;;;;;;;1.00;1.00;;;;;;;;;;5017678;28;20183;-88
2022/01/22 13:10:06;;;;;;;1.00;1.00;;;;;;;;;;5017078;28;20227;-88
2022/01/22 13:12:34;;;;;;;1.15;1.15;;;;;;;;;;5018565;28;20214;-88
2022/01/22 13:15:02;;;;;;;0.90;0.90;;;;;;;;;;5016880;28;20230;-89
2022/01/22 13:17:32;;;;;;;0.93;0.93;;;;;;;;;;5018491;28;20547;-88
2022/01/22 13:20:00;;;;;;;0.90;0.90;;;;;;;;;;5018008;28;20229;-88
2022/01/22 13:22:35;;;;;;;0.98;0.98;;;;;;;;;;5017108;28;20191;-89
2022/01/22 13:25:11;;;;;;;2.47;0.95;;;;;;;;;;5016398;28;20202;-88
2022/01/22 13:27:40;;;;;;;0.93;0.93;;;;;;;;;;5017355;28;20187;-88
2022/01/22 13:30:12;;;;;;;0.70;0.70;;;;;;;;;;5018313;28;20223;-88
2022/01/22 13:32:53;;;;;;;0.80;0.80;;;;;;;;;;5016946;28;20636;-88
2022/01/22 13:35:32;;;;;;;1.15;1.05;;;;;;;;;;5018189;28;20222;-88
2022/01/22 13:49:17;;;;;;;0.88;0.88;;;;;;;;;;5015089;28;20296;-88
2022/01/22 13:51:46;;;;;;;1.17;0.70;;;;;;;;;;5015511;28;20265;-88
2022/01/22 13:54:14;;;;;;;0.90;0.90;;;;;;;;;;5011639;28;20302;-89
2022/01/22 13:56:54;;;;;;;1.33;1.23;;;;;;;;;;4996153;28;20727;-88
2022/01/22 13:59:25;;;;;;;1.00;1.00;;;;;;;;;;4996457;28;20219;-89
2022/01/22 14:02:09;;;;;;;0.80;0.80;;;;;;;;;;4995434;28;20211;-89
2022/01/22 14:04:47;;;;;;;0.90;0.90;;;;;;;;;;4995328;28;20560;-89
2022/01/22 14:07:26;;;;;;;1.00;1.00;;;;;;;;;;4995214;28;20199;-89
2022/01/22 14:10:04;;;;;;;1.00;1.00;;;;;;;;;;4995150;28;20223;-89
2022/01/22 14:12:40;;;;;;;0.57;0.57;;;;;;;;;;4995253;28;20191;-89
2022/01/22 14:15:12;;;;;;;1.20;1.20;;;;;;;;;;4995516;28;20310;-89
2022/01/22 14:18:07;;;;;;;1.10;1.00;;;;;;;;;;4995209;28;20200;-90
2022/01/22 14:20:37;;;;;;;1.33;1.20;;;;;;;;;;4994831;28;20223;-90
2022/01/22 14:23:07;;;;;;;1.20;1.10;;;;;;;;;;4994402;28;20203;-90
2022/01/22 14:25:38;;;;;;;1.40;1.20;;;;;;;;;;4994421;28;20188;-90
2022/01/22 14:28:12;;;;;;;0.73;0.73;;;;;;;;;;4994486;28;20192;-90
2022/01/22 14:30:45;;;;;;;1.15;1.05;;;;;;;;;;4994622;28;20216;-90
2022/01/22 14:33:15;;;;;;;1.33;1.00;;;;;;;;;;4994529;28;20641;-90
2022/01/22 14:35:44;;;;;;;0.88;0.88;;;;;;;;;;4994452;28;20691;-91
2022/01/22 14:38:24;;;;;;;0.80;0.80;;;;;;;;;;4994488;28;20656;-89
2022/01/22 14:44:22;;;;;;;0.70;0.70;;;;;;;;;;5012963;28;20198;-90
2022/01/22 14:46:55;;;;;;;0.70;0.70;;;;;;;;;;5013306;28;20714;-90
2022/01/22 14:49:29;;;;;;;0.80;0.80;;;;;;;;;;5012949;28;20222;-89
2022/01/22 14:51:57;;;;;;;1.85;1.75;;;;;;;;;;5012814;28;20234;-89
2022/01/22 14:54:27;;;;;;;2.60;2.40;;;;;;;;;;5012879;28;20191;-89
2022/01/22 14:56:54;;;;;;;4.45;3.33;;;;;;;;;;5013132;28;20264;-89
2022/01/22 14:59:23;;;;;;;3.22;1.83;;;;;;;;;;5013478;28;20718;-88
2022/01/22 15:01:50;;;;;;;1.55;1.40;;;;;;;;;;5012124;28;20199;-88
2022/01/22 15:04:18;;;;;;;1.60;1.00;;;;;;;;;;5012614;28;20235;-88
2022/01/22 15:06:46;;;;;;;0.90;0.90;;;;;;;;;;5012932;28;20590;-88
2022/01/22 15:09:14;;;;;;;1.25;1.02;;;;;;;;;;5012450;28;20223;-88
2022/01/22 15:11:42;;;;;;;0.73;0.73;;;;;;;;;;5012333;28;20222;-89
2022/01/22 15:14:10;;;;;;;0.82;0.82;;;;;;;;;;5012851;28;20195;-88
2022/01/22 15:16:46;;;;;;;0.60;0.60;;;;;;;;;;5013057;28;20309;-89
2022/01/22 15:19:17;;;;;;;0.90;0.90;;;;;;;;;;5012934;28;20309;-90
2022/01/22 15:21:46;;;;;;;1.00;1.00;;;;;;;;;;5012955;28;20679;-90
2022/01/22 15:24:14;;;;;;;1.00;1.00;;;;;;;;;;5013674;28;20586;-89
2022/01/22 15:26:42;;;;;;;1.92;0.80;;;;;;;;;;5013116;28;20206;-88
2022/01/22 15:29:13;;;;;;;0.95;0.95;;;;;;;;;;5013033;28;20234;-90
2022/01/22 15:31:53;;;;;;;0.82;0.82;;;;;;;;;;5013011;28;20215;-89
2022/01/22 15:34:42;;;;;;;0.90;0.90;;;;;;;;;;5013228;28;20692;-89
2022/01/22 15:37:10;;;;;;;0.70;0.70;;;;;;;;;;5013103;28;20691;-89
2022/01/22 15:39:38;;;;;;;0.93;0.93;;;;;;;;;;5012912;28;20223;-88
2022/01/22 15:42:06;;;;;;;1.00;1.00;;;;;;;;;;5012632;28;20668;-89
2022/01/22 15:44:34;;;;;;;1.25;1.25;;;;;;;;;;5012844;28;20195;-89
2022/01/22 15:47:04;;;;;;;0.98;0.90;;;;;;;;;;5012499;28;20207;-88
2022/01/22 15:49:32;;;;;;;0.90;0.90;;;;;;;;;;5012427;28;20230;-89
2022/01/22 15:52:01;;;;;;;2.03;1.50;;;;;;;;;;5012338;28;20281;-89
2022/01/22 15:54:28;;;;;;;1.35;1.30;;;;;;;;;;5012018;28;20199;-89
2022/01/22 15:56:56;;;;;;;0.93;0.90;;;;;;;;;;5012505;28;20226;-89
2022/01/22 15:59:24;;;;;;;1.00;1.00;;;;;;;;;;5012561;28;20211;-90
2022/01/22 16:01:53;;;;;;;1.10;1.10;;;;;;;;;;5012308;28;20198;-90
2022/01/22 16:04:22;;;;;;;1.20;1.10;;;;;;;;;;5012512;28;20207;-90
2022/01/22 16:07:01;;;;;;;1.38;1.27;;;;;;;;;;5012935;28;20195;-90
2022/01/22 16:09:32;;;;;;;1.25;1.17;;;;;;;;;;5012275;28;20314;-90
2022/01/22 16:12:00;;;;;;;1.60;1.50;;;;;;;;;;5012809;28;20206;-89
2022/01/22 16:14:28;;;;;;;1.20;1.20;;;;;;;;;;5015918;28;20207;-90
2022/01/22 16:16:56;;;;;;;1.20;1.10;;;;;;;;;;5016107;28;20227;-90
2022/01/22 16:19:24;;;;;;;3.83;1.45;;;;;;;;;;5015976;28;20694;-90
2022/01/22 16:21:55;;;;;;;1.20;1.20;;;;;;;;;;5015387;28;20286;-89
2022/01/22 16:24:22;;;;;;;1.50;1.42;;;;;;;;;;5015916;28;20261;-89
2022/01/22 16:26:49;;;;;;;1.88;1.38;;;;;;;;;;5015806;28;20575;-90
2022/01/22 16:29:17;;;;;;;1.33;1.20;;;;;;;;;;5015716;28;20222;-90
2022/01/22 16:31:45;;;;;;;1.40;1.30;;;;;;;;;;5016016;28;20207;-89
2022/01/22 16:34:14;;;;;;;1.20;1.10;;;;;;;;;;5015856;28;20202;-89